createdAt,value
2022-11-13T00:00:07.832Z,12.70
2022-11-13T00:00:19.730Z,12.70
2022-11-13T00:00:31.739Z,12.70
2022-11-13T00:00:43.508Z,12.80
2022-11-13T00:00:55.425Z,12.80
2022-11-13T00:01:11.911Z,12.80
2022-11-13T00:01:25.249Z,12.80
2022-11-13T00:01:37.050Z,12.80
2022-11-13T00:01:48.946Z,12.80
2022-11-13T00:02:00.745Z,12.80
2022-11-13T00:02:12.631Z,12.80
2022-11-13T00:02:24.475Z,12.80
2022-11-13T00:02:36.487Z,12.80
2022-11-13T00:02:48.319Z,12.80
2022-11-13T00:03:00.151Z,12.90
2022-11-13T00:03:12.057Z,12.80
2022-11-13T00:03:24.112Z,12.80
2022-11-13T00:03:36.076Z,12.80
2022-11-13T00:03:47.960Z,12.80
2022-11-13T00:03:59.734Z,12.80
2022-11-13T00:04:12.960Z,12.80
2022-11-13T00:04:25.079Z,12.80
2022-11-13T00:04:36.913Z,12.80
2022-11-13T00:04:48.783Z,12.80
2022-11-13T00:05:00.632Z,12.80
2022-11-13T00:05:12.440Z,12.80
2022-11-13T00:05:24.245Z,12.80
2022-11-13T00:05:36.108Z,12.80
2022-11-13T00:05:48.009Z,12.80
2022-11-13T00:06:03.250Z,12.80
2022-11-13T00:06:15.415Z,12.80
2022-11-13T00:06:27.185Z,12.80
2022-11-13T00:06:38.958Z,12.80
2022-11-13T00:06:53.668Z,12.80
2022-11-13T00:07:09.790Z,12.80
2022-11-13T00:07:21.736Z,12.80
2022-11-13T00:07:33.527Z,12.80
2022-11-13T00:07:45.367Z,12.90
2022-11-13T00:07:57.194Z,12.90
2022-11-13T00:08:09.011Z,12.90
2022-11-13T00:08:20.967Z,12.90
2022-11-13T00:08:32.842Z,12.90
2022-11-13T00:08:44.910Z,12.90
2022-11-13T00:08:56.717Z,13.00
2022-11-13T00:09:11.377Z,13.00
2022-11-13T00:09:23.168Z,13.00
2022-11-13T00:09:34.978Z,13.00
2022-11-13T00:09:47.009Z,13.00
2022-11-13T00:09:58.900Z,13.00
2022-11-13T00:10:10.756Z,13.00
2022-11-13T00:10:22.573Z,13.00
2022-11-13T00:10:34.315Z,13.00
2022-11-13T00:10:46.144Z,13.10
2022-11-13T00:11:05.301Z,13.00
2022-11-13T00:11:19.488Z,13.10
2022-11-13T00:11:31.349Z,13.10
2022-11-13T00:11:43.244Z,13.10
2022-11-13T00:11:55.058Z,13.10
2022-11-13T00:12:06.935Z,13.00
2022-11-13T00:12:18.772Z,13.00
2022-11-13T00:12:30.583Z,13.00
2022-11-13T00:12:42.490Z,13.00
2022-11-13T00:12:54.397Z,13.10
2022-11-13T00:13:06.605Z,13.10
2022-11-13T00:13:18.457Z,13.10
2022-11-13T00:13:30.782Z,13.10
2022-11-13T00:13:45.560Z,13.10
2022-11-13T00:13:57.375Z,13.10
2022-11-13T00:14:09.149Z,13.10
2022-11-13T00:14:21.201Z,13.10
2022-11-13T00:14:33.082Z,13.00
2022-11-13T00:14:44.860Z,13.00
2022-11-13T00:14:56.636Z,13.00
2022-11-13T00:15:08.997Z,13.00
2022-11-13T00:15:20.825Z,13.00
2022-11-13T00:15:32.703Z,13.00
2022-11-13T00:15:44.542Z,13.00
2022-11-13T00:16:03.100Z,13.00
2022-11-13T00:16:17.662Z,13.00
2022-11-13T00:16:29.458Z,13.00
2022-11-13T00:16:41.270Z,13.00
2022-11-13T00:16:52.987Z,13.00
2022-11-13T00:17:04.784Z,13.00
2022-11-13T00:17:16.622Z,13.00
2022-11-13T00:17:28.775Z,13.00
2022-11-13T00:17:40.574Z,13.10
2022-11-13T00:17:52.350Z,13.10
2022-11-13T00:18:04.384Z,13.10
2022-11-13T00:18:16.336Z,13.10
2022-11-13T00:18:30.411Z,13.00
2022-11-13T00:18:42.605Z,13.10
2022-11-13T00:18:54.353Z,13.00
2022-11-13T00:19:06.206Z,13.00
2022-11-13T00:19:18.119Z,13.00
2022-11-13T00:19:29.942Z,13.00
2022-11-13T00:19:41.666Z,13.00
2022-11-13T00:19:53.460Z,13.00
2022-11-13T00:20:05.798Z,13.00
2022-11-13T00:20:18.598Z,13.00
2022-11-13T00:20:30.394Z,13.00
2022-11-13T00:20:42.241Z,13.00
2022-11-13T00:20:54.209Z,13.00
2022-11-13T00:21:12.108Z,13.00
2022-11-13T00:21:25.352Z,13.00
2022-11-13T00:21:37.165Z,13.00
2022-11-13T00:21:48.941Z,13.00
2022-11-13T00:22:00.822Z,13.00
2022-11-13T00:22:13.269Z,13.00
2022-11-13T00:22:25.020Z,12.90
2022-11-13T00:22:36.810Z,13.00
2022-11-13T00:22:48.631Z,13.00
2022-11-13T00:23:00.497Z,13.00
2022-11-13T00:23:12.278Z,12.90
2022-11-13T00:23:24.331Z,12.90
2022-11-13T00:23:36.597Z,12.90
2022-11-13T00:23:48.676Z,12.90
2022-11-13T00:24:00.463Z,12.90
2022-11-13T00:24:12.229Z,12.90
2022-11-13T00:24:24.075Z,12.90
2022-11-13T00:24:35.945Z,12.80
2022-11-13T00:24:47.705Z,12.90
2022-11-13T00:24:59.489Z,12.90
2022-11-13T00:25:11.335Z,12.90
2022-11-13T00:25:23.194Z,12.90
2022-11-13T00:25:35.856Z,12.90
2022-11-13T00:25:47.725Z,12.80
2022-11-13T00:26:07.960Z,12.80
2022-11-13T00:26:24.975Z,12.80
2022-11-13T00:26:36.770Z,12.80
2022-11-13T00:26:49.049Z,12.80
2022-11-13T00:27:00.918Z,12.80
2022-11-13T00:27:12.808Z,12.80
2022-11-13T00:27:24.596Z,12.80
2022-11-13T00:27:36.478Z,12.70
2022-11-13T00:27:48.369Z,12.80
2022-11-13T00:28:00.321Z,12.80
2022-11-13T00:28:12.052Z,12.80
2022-11-13T00:28:24.054Z,12.80
2022-11-13T00:28:36.067Z,12.70
2022-11-13T00:28:51.680Z,12.80
2022-11-13T00:29:03.731Z,12.70
2022-11-13T00:29:15.795Z,12.70
2022-11-13T00:29:27.587Z,12.70
2022-11-13T00:29:39.855Z,12.70
2022-11-13T00:29:51.638Z,12.70
2022-11-13T00:30:05.269Z,12.70
2022-11-13T00:30:19.508Z,12.70
2022-11-13T00:30:31.494Z,12.60
2022-11-13T00:30:43.272Z,12.60
2022-11-13T00:31:02.170Z,12.60
2022-11-13T00:31:15.229Z,12.60
2022-11-13T00:31:27.089Z,12.60
2022-11-13T00:31:38.805Z,12.60
2022-11-13T00:31:50.600Z,12.60
2022-11-13T00:32:02.435Z,12.60
2022-11-13T00:32:14.326Z,12.60
2022-11-13T00:32:26.614Z,12.60
2022-11-13T00:32:40.073Z,12.60
2022-11-13T00:32:51.824Z,12.70
2022-11-13T00:33:03.619Z,12.70
2022-11-13T00:33:26.459Z,12.70
2022-11-13T00:34:19.529Z,12.70
2022-11-13T00:34:45.899Z,12.70
2022-11-13T00:34:50.856Z,12.70
2022-11-13T00:35:02.638Z,12.80
2022-11-13T00:35:14.511Z,12.70
2022-11-13T00:35:26.297Z,12.80
2022-11-13T00:35:38.019Z,12.80
2022-11-13T00:35:49.786Z,12.80
2022-11-13T00:36:05.480Z,12.80
2022-11-13T00:36:26.444Z,12.80
2022-11-13T00:36:38.577Z,12.70
2022-11-13T00:36:50.408Z,12.70
2022-11-13T00:37:02.291Z,12.70
2022-11-13T00:37:14.181Z,12.70
2022-11-13T00:37:25.935Z,12.70
2022-11-13T00:37:37.821Z,12.70
2022-11-13T00:37:49.569Z,12.70
2022-11-13T00:38:01.369Z,12.70
2022-11-13T00:38:13.186Z,12.70
2022-11-13T00:38:25.160Z,12.70
2022-11-13T00:38:37.109Z,12.70
2022-11-13T00:38:49.014Z,12.70
2022-11-13T00:39:00.874Z,12.70
2022-11-13T00:39:12.641Z,12.70
2022-11-13T00:39:24.538Z,12.70
2022-11-13T00:39:36.309Z,12.70
2022-11-13T00:39:48.076Z,12.70
2022-11-13T00:39:59.967Z,12.70
2022-11-13T00:40:12.071Z,12.70
2022-11-13T00:40:23.830Z,12.70
2022-11-13T00:40:35.758Z,12.70
2022-11-13T00:40:47.527Z,12.70
2022-11-13T00:40:59.423Z,12.70
2022-11-13T00:41:11.400Z,12.70
2022-11-13T00:41:23.756Z,12.70
2022-11-13T00:41:35.545Z,12.70
2022-11-13T00:41:47.360Z,12.70
2022-11-13T00:41:59.206Z,12.70
2022-11-13T00:42:10.985Z,12.70
2022-11-13T00:42:22.786Z,12.70
2022-11-13T00:42:34.508Z,12.70
2022-11-13T00:42:46.251Z,12.70
2022-11-13T00:42:58.039Z,12.70
2022-11-13T00:43:09.882Z,12.70
2022-11-13T00:43:21.685Z,12.70
2022-11-13T00:43:33.464Z,12.70
2022-11-13T00:43:45.442Z,12.70
2022-11-13T00:43:57.272Z,12.70
2022-11-13T00:44:09.158Z,12.70
2022-11-13T00:44:20.870Z,12.70
2022-11-13T00:44:32.542Z,12.70
2022-11-13T00:44:44.306Z,12.70
2022-11-13T00:44:55.996Z,12.70
2022-11-13T00:45:09.102Z,12.70
2022-11-13T00:45:20.914Z,12.70
2022-11-13T00:45:32.668Z,12.70
2022-11-13T00:45:44.434Z,12.70
2022-11-13T00:45:56.169Z,12.70
2022-11-13T00:46:08.048Z,12.70
2022-11-13T00:46:19.713Z,12.70
2022-11-13T00:46:31.448Z,12.70
2022-11-13T00:46:43.282Z,12.70
2022-11-13T00:46:54.933Z,12.70
2022-11-13T00:47:06.756Z,12.70
2022-11-13T00:47:18.476Z,12.70
2022-11-13T00:47:30.146Z,12.70
2022-11-13T00:47:41.903Z,12.70
2022-11-13T00:47:53.637Z,12.70
2022-11-13T00:48:05.611Z,12.70
2022-11-13T00:48:17.500Z,12.70
2022-11-13T00:48:29.600Z,12.70
2022-11-13T00:48:41.546Z,12.70
2022-11-13T00:48:53.230Z,12.70
2022-11-13T00:49:05.061Z,12.70
2022-11-13T00:49:17.707Z,12.70
2022-11-13T00:49:29.483Z,12.70
2022-11-13T00:49:41.197Z,12.70
2022-11-13T00:49:52.868Z,12.60
2022-11-13T00:50:04.846Z,12.60
2022-11-13T00:50:16.854Z,12.70
2022-11-13T00:50:28.614Z,12.60
2022-11-13T00:50:40.325Z,12.60
2022-11-13T00:50:52.325Z,12.60
2022-11-13T00:51:04.141Z,12.60
2022-11-13T00:51:15.932Z,12.60
2022-11-13T00:51:27.741Z,12.60
2022-11-13T00:51:39.457Z,12.60
2022-11-13T00:51:51.126Z,12.60
2022-11-13T00:52:03.644Z,12.60
2022-11-13T00:52:15.354Z,12.60
2022-11-13T00:52:27.034Z,12.60
2022-11-13T00:52:38.761Z,12.50
2022-11-13T00:52:50.475Z,12.60
2022-11-13T00:53:02.176Z,12.60
2022-11-13T00:53:17.918Z,12.50
2022-11-13T00:53:30.069Z,12.50
2022-11-13T00:53:41.856Z,12.50
2022-11-13T00:53:53.634Z,12.50
2022-11-13T00:54:05.394Z,12.50
2022-11-13T00:54:17.620Z,12.60
2022-11-13T00:54:29.405Z,12.60
2022-11-13T00:54:41.177Z,12.60
2022-11-13T00:54:52.956Z,12.60
2022-11-13T00:55:05.131Z,12.60
2022-11-13T00:55:17.507Z,12.60
2022-11-13T00:55:29.261Z,12.60
2022-11-13T00:55:43.068Z,12.50
2022-11-13T00:55:54.983Z,12.50
2022-11-13T00:56:06.854Z,12.50
2022-11-13T00:56:18.637Z,12.60
2022-11-13T00:56:30.359Z,12.50
2022-11-13T00:56:42.426Z,12.50
2022-11-13T00:56:54.144Z,12.50
2022-11-13T00:57:05.933Z,12.50
2022-11-13T00:57:17.936Z,12.50
2022-11-13T00:57:29.603Z,12.50
2022-11-13T00:57:41.772Z,12.50
2022-11-13T00:57:53.417Z,12.50
2022-11-13T00:58:05.473Z,12.50
2022-11-13T00:58:17.185Z,12.50
2022-11-13T00:58:29.273Z,12.50
2022-11-13T00:58:41.219Z,12.50
2022-11-13T00:58:52.932Z,12.40
2022-11-13T00:59:04.635Z,12.40
2022-11-13T00:59:16.636Z,12.40
2022-11-13T00:59:28.520Z,12.40
2022-11-13T00:59:40.232Z,12.40
2022-11-13T00:59:51.939Z,12.40
2022-11-13T01:00:04.540Z,12.30
2022-11-13T01:00:16.749Z,12.30
2022-11-13T01:00:28.512Z,12.30
2022-11-13T01:00:41.069Z,12.30
2022-11-13T01:00:52.810Z,12.30
2022-11-13T01:01:12.440Z,12.40
2022-11-13T01:01:24.280Z,12.30
2022-11-13T01:01:36.271Z,12.30
2022-11-13T01:01:48.008Z,12.30
2022-11-13T01:01:59.724Z,12.30
2022-11-13T01:02:12.980Z,12.30
2022-11-13T01:02:24.743Z,12.30
2022-11-13T01:02:36.420Z,12.30
2022-11-13T01:02:48.087Z,12.30
2022-11-13T01:02:59.964Z,12.30
2022-11-13T01:03:11.968Z,12.30
2022-11-13T01:03:23.667Z,12.30
2022-11-13T01:03:35.452Z,12.30
2022-11-13T01:03:47.179Z,12.30
2022-11-13T01:03:58.859Z,12.30
2022-11-13T01:04:10.539Z,12.30
2022-11-13T01:04:22.174Z,12.30
2022-11-13T01:04:33.949Z,12.30
2022-11-13T01:04:45.627Z,12.30
2022-11-13T01:04:57.290Z,12.30
2022-11-13T01:05:09.139Z,12.30
2022-11-13T01:05:20.796Z,12.30
2022-11-13T01:05:36.241Z,12.20
2022-11-13T01:05:48.084Z,12.30
2022-11-13T01:05:59.872Z,12.20
2022-11-13T01:06:25.603Z,12.20
2022-11-13T01:06:37.321Z,12.20
2022-11-13T01:06:49.075Z,12.20
2022-11-13T01:07:00.860Z,12.20
2022-11-13T01:07:12.601Z,12.20
2022-11-13T01:07:24.362Z,12.20
2022-11-13T01:07:37.998Z,12.20
2022-11-13T01:07:49.670Z,12.20
2022-11-13T01:08:01.340Z,12.20
2022-11-13T01:08:13.936Z,12.20
2022-11-13T01:08:25.936Z,12.20
2022-11-13T01:08:37.929Z,12.20
2022-11-13T01:08:49.806Z,12.20
2022-11-13T01:09:01.563Z,12.20
2022-11-13T01:09:13.207Z,12.20
2022-11-13T01:09:25.036Z,12.20
2022-11-13T01:09:36.850Z,12.20
2022-11-13T01:09:51.468Z,12.20
2022-11-13T01:10:06.488Z,12.20
2022-11-13T01:10:18.323Z,12.20
2022-11-13T01:10:30.082Z,12.20
2022-11-13T01:10:50.199Z,12.20
2022-11-13T01:11:09.599Z,12.20
2022-11-13T01:11:23.355Z,12.20
2022-11-13T01:11:35.091Z,12.10
2022-11-13T01:11:46.747Z,12.10
2022-11-13T01:11:58.521Z,12.10
2022-11-13T01:12:10.232Z,12.10
2022-11-13T01:12:22.010Z,12.10
2022-11-13T01:12:33.787Z,12.10
2022-11-13T01:12:45.506Z,12.10
2022-11-13T01:12:57.283Z,12.10
2022-11-13T01:13:09.162Z,12.10
2022-11-13T01:13:20.874Z,12.10
2022-11-13T01:13:33.052Z,12.10
2022-11-13T01:13:46.670Z,12.10
2022-11-13T01:13:58.489Z,12.00
2022-11-13T01:14:10.274Z,12.00
2022-11-13T01:14:22.004Z,12.00
2022-11-13T01:14:33.688Z,12.00
2022-11-13T01:14:45.469Z,12.00
2022-11-13T01:14:57.272Z,12.00
2022-11-13T01:15:09.456Z,12.00
2022-11-13T01:15:21.399Z,12.00
2022-11-13T01:15:33.223Z,12.00
2022-11-13T01:15:45.155Z,11.90
2022-11-13T01:15:57.110Z,11.90
2022-11-13T01:16:09.716Z,11.90
2022-11-13T01:16:24.166Z,11.90
2022-11-13T01:16:35.934Z,11.90
2022-11-13T01:16:47.679Z,11.90
2022-11-13T01:16:59.373Z,11.90
2022-11-13T01:17:11.105Z,11.90
2022-11-13T01:17:24.091Z,11.90
2022-11-13T01:17:35.885Z,11.90
2022-11-13T01:17:47.739Z,11.90
2022-11-13T01:17:59.860Z,11.90
2022-11-13T01:18:11.902Z,11.90
2022-11-13T01:18:23.665Z,11.90
2022-11-13T01:18:35.741Z,11.90
2022-11-13T01:18:47.681Z,11.90
2022-11-13T01:18:59.443Z,11.90
2022-11-13T01:19:11.205Z,11.90
2022-11-13T01:19:22.948Z,11.90
2022-11-13T01:19:34.710Z,11.90
2022-11-13T01:19:46.455Z,11.90
2022-11-13T01:19:58.813Z,11.90
2022-11-13T01:20:11.124Z,11.90
2022-11-13T01:20:23.559Z,11.90
2022-11-13T01:20:35.555Z,11.90
2022-11-13T01:20:47.354Z,11.90
2022-11-13T01:21:14.889Z,11.90
2022-11-13T01:21:27.381Z,11.90
2022-11-13T01:21:39.092Z,11.90
2022-11-13T01:21:50.823Z,11.90
2022-11-13T01:22:02.542Z,11.90
2022-11-13T01:22:14.259Z,11.90
2022-11-13T01:22:25.983Z,11.90
2022-11-13T01:22:37.674Z,11.80
2022-11-13T01:22:49.397Z,11.80
2022-11-13T01:23:01.257Z,11.90
2022-11-13T01:23:13.089Z,11.80
2022-11-13T01:23:24.918Z,11.80
2022-11-13T01:23:36.868Z,11.80
2022-11-13T01:23:50.814Z,11.80
2022-11-13T01:24:03.214Z,11.80
2022-11-13T01:24:14.946Z,11.80
2022-11-13T01:24:26.712Z,11.80
2022-11-13T01:24:38.501Z,11.80
2022-11-13T01:24:50.289Z,11.80
2022-11-13T01:25:01.967Z,11.80
2022-11-13T01:25:13.722Z,11.80
2022-11-13T01:25:25.521Z,11.80
2022-11-13T01:25:37.268Z,11.80
2022-11-13T01:25:49.044Z,11.80
2022-11-13T01:26:12.538Z,11.80
2022-11-13T01:26:26.595Z,11.70
2022-11-13T01:26:38.312Z,11.70
2022-11-13T01:26:50.186Z,11.70
2022-11-13T01:27:01.898Z,11.70
2022-11-13T01:27:15.393Z,11.70
2022-11-13T01:27:27.052Z,11.70
2022-11-13T01:27:38.763Z,11.70
2022-11-13T01:27:50.507Z,11.70
2022-11-13T01:28:03.396Z,11.70
2022-11-13T01:28:15.094Z,11.70
2022-11-13T01:28:27.299Z,11.70
2022-11-13T01:28:39.756Z,11.70
2022-11-13T01:28:51.553Z,11.70
2022-11-13T01:29:03.311Z,11.70
2022-11-13T01:29:15.382Z,11.70
2022-11-13T01:29:27.072Z,11.70
2022-11-13T01:29:38.966Z,11.70
2022-11-13T01:29:50.724Z,11.60
2022-11-13T01:30:02.524Z,11.70
2022-11-13T01:30:14.369Z,11.70
2022-11-13T01:30:26.162Z,11.70
2022-11-13T01:30:39.180Z,11.70
2022-11-13T01:30:50.849Z,11.60
2022-11-13T01:31:10.174Z,11.70
2022-11-13T01:31:24.194Z,11.60
2022-11-13T01:31:35.913Z,11.60
2022-11-13T01:31:47.640Z,11.60
2022-11-13T01:31:59.498Z,11.60
2022-11-13T01:32:11.267Z,11.60
2022-11-13T01:32:23.127Z,11.60
2022-11-13T01:32:34.957Z,11.60
2022-11-13T01:32:46.692Z,11.60
2022-11-13T01:32:58.463Z,11.60
2022-11-13T01:33:10.119Z,11.60
2022-11-13T01:33:21.847Z,11.60
2022-11-13T01:33:33.750Z,11.60
2022-11-13T01:33:46.125Z,11.60
2022-11-13T01:33:58.014Z,11.60
2022-11-13T01:34:09.716Z,11.50
2022-11-13T01:34:22.735Z,11.50
2022-11-13T01:34:34.501Z,11.50
2022-11-13T01:34:46.182Z,11.50
2022-11-13T01:34:57.953Z,11.50
2022-11-13T01:35:09.814Z,11.50
2022-11-13T01:35:21.585Z,11.50
2022-11-13T01:35:33.393Z,11.50
2022-11-13T01:35:45.110Z,11.50
2022-11-13T01:36:01.459Z,11.50
2022-11-13T01:36:18.322Z,11.40
2022-11-13T01:36:30.048Z,11.50
2022-11-13T01:36:41.804Z,11.40
2022-11-13T01:36:53.565Z,11.50
2022-11-13T01:37:05.320Z,11.50
2022-11-13T01:37:17.011Z,11.50
2022-11-13T01:37:28.666Z,11.50
2022-11-13T01:37:40.349Z,11.50
2022-11-13T01:37:52.024Z,11.50
2022-11-13T01:38:03.732Z,11.50
2022-11-13T01:38:15.461Z,11.50
2022-11-13T01:38:27.494Z,11.50
2022-11-13T01:38:39.547Z,11.50
2022-11-13T01:38:51.431Z,11.50
2022-11-13T01:39:03.187Z,11.50
2022-11-13T01:39:14.920Z,11.50
2022-11-13T01:39:26.616Z,11.50
2022-11-13T01:39:38.415Z,11.50
2022-11-13T01:39:50.294Z,11.60
2022-11-13T01:40:02.371Z,11.60
2022-11-13T01:40:14.260Z,11.60
2022-11-13T01:40:25.920Z,11.50
2022-11-13T01:40:45.384Z,11.60
2022-11-13T01:40:57.113Z,11.60
2022-11-13T01:41:09.605Z,11.60
2022-11-13T01:41:28.087Z,11.50
2022-11-13T01:41:40.168Z,11.50
2022-11-13T01:41:51.935Z,11.50
2022-11-13T01:42:03.809Z,11.50
2022-11-13T01:42:16.186Z,11.50
2022-11-13T01:42:27.833Z,11.50
2022-11-13T01:42:39.554Z,11.50
2022-11-13T01:42:51.437Z,11.50
2022-11-13T01:43:19.649Z,11.50
2022-11-13T01:43:33.534Z,11.50
2022-11-13T01:43:45.267Z,11.50
2022-11-13T01:43:57.277Z,11.50
2022-11-13T01:44:13.665Z,11.50
2022-11-13T01:44:25.397Z,11.50
2022-11-13T01:45:24.764Z,11.50
2022-11-13T01:45:58.307Z,11.50
2022-11-13T01:46:16.108Z,11.50
2022-11-13T01:46:33.903Z,11.50
2022-11-13T01:46:49.105Z,11.40
2022-11-13T01:47:00.946Z,11.40
2022-11-13T01:47:12.651Z,11.50
2022-11-13T01:47:24.647Z,11.40
2022-11-13T01:47:36.386Z,11.40
2022-11-13T01:47:48.102Z,11.40
2022-11-13T01:47:59.882Z,11.40
2022-11-13T01:48:11.693Z,11.40
2022-11-13T01:48:23.413Z,11.40
2022-11-13T01:48:55.313Z,11.40
2022-11-13T01:49:09.611Z,11.40
2022-11-13T01:49:40.520Z,11.40
2022-11-13T01:49:54.179Z,11.40
2022-11-13T01:50:06.131Z,11.40
2022-11-13T01:50:17.952Z,11.40
2022-11-13T01:50:29.686Z,11.40
2022-11-13T01:50:41.347Z,11.40
2022-11-13T01:50:55.466Z,11.40
2022-11-13T01:51:11.427Z,11.40
2022-11-13T01:51:32.507Z,11.40
2022-11-13T01:52:02.236Z,11.40
2022-11-13T01:52:29.936Z,11.40
2022-11-13T01:52:41.610Z,11.50
2022-11-13T01:52:53.391Z,11.40
2022-11-13T01:53:05.125Z,11.50
2022-11-13T01:53:16.805Z,11.40
2022-11-13T01:53:28.482Z,11.50
2022-11-13T01:53:40.973Z,11.40
2022-11-13T01:53:52.747Z,11.40
2022-11-13T01:54:06.758Z,11.40
2022-11-13T01:54:23.006Z,11.40
2022-11-13T01:54:39.326Z,11.40
2022-11-13T01:54:53.221Z,11.40
2022-11-13T01:55:10.567Z,11.40
2022-11-13T01:55:22.649Z,11.40
2022-11-13T01:55:34.303Z,11.40
2022-11-13T01:55:46.355Z,11.40
2022-11-13T01:55:58.109Z,11.40
2022-11-13T01:56:09.772Z,11.40
2022-11-13T01:56:21.474Z,11.40
2022-11-13T01:56:33.203Z,11.40
2022-11-13T01:56:44.885Z,11.40
2022-11-13T01:56:56.772Z,11.40
2022-11-13T01:57:08.438Z,11.40
2022-11-13T01:57:20.296Z,11.40
2022-11-13T01:57:32.082Z,11.40
2022-11-13T01:57:43.774Z,11.50
2022-11-13T01:57:55.492Z,11.40
2022-11-13T01:58:08.372Z,11.40
2022-11-13T01:58:20.122Z,11.50
2022-11-13T01:58:31.857Z,11.40
2022-11-13T01:58:47.068Z,11.50
2022-11-13T01:59:03.742Z,11.50
2022-11-13T01:59:17.699Z,11.50
2022-11-13T01:59:32.204Z,11.50
2022-11-13T01:59:46.238Z,11.50
2022-11-13T02:00:00.511Z,11.50
2022-11-13T02:00:12.798Z,11.50
2022-11-13T02:00:24.448Z,11.50
2022-11-13T02:00:36.163Z,11.50
2022-11-13T02:00:47.945Z,11.50
2022-11-13T02:00:59.702Z,11.50
2022-11-13T02:01:11.394Z,11.50
2022-11-13T02:01:23.162Z,11.50
2022-11-13T02:01:35.333Z,11.50
2022-11-13T02:01:47.226Z,11.50
2022-11-13T02:01:58.998Z,11.50
2022-11-13T02:02:11.135Z,11.50
2022-11-13T02:02:22.858Z,11.50
2022-11-13T02:02:35.290Z,11.50
2022-11-13T02:02:46.955Z,11.50
2022-11-13T02:02:58.661Z,11.50
2022-11-13T02:03:10.730Z,11.50
2022-11-13T02:03:22.415Z,11.50
2022-11-13T02:03:34.283Z,11.50
2022-11-13T02:03:46.005Z,11.50
2022-11-13T02:03:57.675Z,11.50
2022-11-13T02:04:09.359Z,11.50
2022-11-13T02:04:21.130Z,11.50
2022-11-13T02:04:32.802Z,11.50
2022-11-13T02:04:44.638Z,11.50
2022-11-13T02:04:56.405Z,11.50
2022-11-13T02:05:09.223Z,11.40
2022-11-13T02:05:20.889Z,11.40
2022-11-13T02:05:32.554Z,11.40
2022-11-13T02:05:44.629Z,11.40
2022-11-13T02:05:56.807Z,11.40
2022-11-13T02:06:08.487Z,11.40
2022-11-13T02:06:20.477Z,11.40
2022-11-13T02:06:44.041Z,11.40
2022-11-13T02:06:57.912Z,11.40
2022-11-13T02:07:11.389Z,11.40
2022-11-13T02:07:23.189Z,11.40
2022-11-13T02:07:34.927Z,11.40
2022-11-13T02:07:46.801Z,11.40
2022-11-13T02:07:58.483Z,11.40
2022-11-13T02:08:10.146Z,11.40
2022-11-13T02:08:21.800Z,11.40
2022-11-13T02:08:33.472Z,11.40
2022-11-13T02:08:45.583Z,11.40
2022-11-13T02:08:57.254Z,11.40
2022-11-13T02:09:08.935Z,11.40
2022-11-13T02:09:22.529Z,11.40
2022-11-13T02:09:39.455Z,11.40
2022-11-13T02:09:52.487Z,11.40
2022-11-13T02:10:04.437Z,11.40
2022-11-13T02:10:16.274Z,11.40
2022-11-13T02:10:28.008Z,11.40
2022-11-13T02:10:39.703Z,11.40
2022-11-13T02:10:51.500Z,11.40
2022-11-13T02:11:03.159Z,11.40
2022-11-13T02:11:14.834Z,11.40
2022-11-13T02:11:26.557Z,11.40
2022-11-13T02:11:38.530Z,11.40
2022-11-13T02:11:50.475Z,11.40
2022-11-13T02:12:02.153Z,11.40
2022-11-13T02:12:16.113Z,11.40
2022-11-13T02:12:39.610Z,11.40
2022-11-13T02:12:51.760Z,11.40
2022-11-13T02:13:03.433Z,11.40
2022-11-13T02:13:15.105Z,11.40
2022-11-13T02:13:26.754Z,11.40
2022-11-13T02:13:38.664Z,11.40
2022-11-13T02:13:50.533Z,11.40
2022-11-13T02:14:02.213Z,11.40
2022-11-13T02:14:13.917Z,11.40
2022-11-13T02:14:26.741Z,11.40
2022-11-13T02:14:43.191Z,11.40
2022-11-13T02:14:55.356Z,11.30
2022-11-13T02:15:07.331Z,11.40
2022-11-13T02:15:26.228Z,11.40
2022-11-13T02:15:37.980Z,11.40
2022-11-13T02:15:49.647Z,11.40
2022-11-13T02:16:01.417Z,11.40
2022-11-13T02:16:13.078Z,11.40
2022-11-13T02:16:24.785Z,11.40
2022-11-13T02:16:37.204Z,11.40
2022-11-13T02:16:49.234Z,11.40
2022-11-13T02:17:02.288Z,11.40
2022-11-13T02:17:19.805Z,11.40
2022-11-13T02:17:34.079Z,11.40
2022-11-13T02:17:47.512Z,11.40
2022-11-13T02:17:59.297Z,11.40
2022-11-13T02:18:12.408Z,11.40
2022-11-13T02:18:24.150Z,11.40
2022-11-13T02:18:36.428Z,11.40
2022-11-13T02:18:48.142Z,11.40
2022-11-13T02:19:00.265Z,11.40
2022-11-13T02:19:19.951Z,11.40
2022-11-13T02:19:33.965Z,11.40
2022-11-13T02:19:48.418Z,11.40
2022-11-13T02:20:01.831Z,11.40
2022-11-13T02:20:13.564Z,11.40
2022-11-13T02:20:54.063Z,11.40
2022-11-13T02:21:14.339Z,11.40
2022-11-13T02:21:58.360Z,11.40
2022-11-13T02:22:32.514Z,11.40
2022-11-13T02:23:17.160Z,11.40
2022-11-13T02:23:57.847Z,11.40
2022-11-13T02:24:23.882Z,11.40
2022-11-13T02:24:45.498Z,11.40
2022-11-13T02:24:58.692Z,11.40
2022-11-13T02:25:10.368Z,11.30
2022-11-13T02:25:22.034Z,11.30
2022-11-13T02:25:33.821Z,11.40
2022-11-13T02:25:45.489Z,11.40
2022-11-13T02:25:57.268Z,11.30
2022-11-13T02:26:08.931Z,11.30
2022-11-13T02:26:21.032Z,11.30
2022-11-13T02:26:32.834Z,11.30
2022-11-13T02:26:44.512Z,11.30
2022-11-13T02:26:58.569Z,11.30
2022-11-13T02:27:23.870Z,11.30
2022-11-13T02:27:44.182Z,11.30
2022-11-13T02:27:55.918Z,11.30
2022-11-13T02:28:07.668Z,11.30
2022-11-13T02:28:20.135Z,11.30
2022-11-13T02:28:31.845Z,11.30
2022-11-13T02:28:43.549Z,11.30
2022-11-13T02:28:55.201Z,11.30
2022-11-13T02:29:06.868Z,11.30
2022-11-13T02:29:18.605Z,11.30
2022-11-13T02:29:30.347Z,11.30
2022-11-13T02:29:42.045Z,11.30
2022-11-13T02:29:54.140Z,11.30
2022-11-13T02:30:27.257Z,11.30
2022-11-13T02:30:39.418Z,11.30
2022-11-13T02:30:51.119Z,11.30
2022-11-13T02:31:07.870Z,11.30
2022-11-13T02:31:19.644Z,11.30
2022-11-13T02:31:31.439Z,11.30
2022-11-13T02:31:43.094Z,11.20
2022-11-13T02:31:54.853Z,11.30
2022-11-13T02:32:06.521Z,11.30
2022-11-13T02:32:18.220Z,11.30
2022-11-13T02:32:29.932Z,11.30
2022-11-13T02:32:45.156Z,11.30
2022-11-13T02:32:57.564Z,11.30
2022-11-13T02:33:32.280Z,11.30
2022-11-13T02:33:43.970Z,11.30
2022-11-13T02:33:55.686Z,11.30
2022-11-13T02:34:07.372Z,11.30
2022-11-13T02:34:19.241Z,11.30
2022-11-13T02:34:30.974Z,11.30
2022-11-13T02:34:42.811Z,11.30
2022-11-13T02:34:54.485Z,11.30
2022-11-13T02:35:06.406Z,11.30
2022-11-13T02:35:32.461Z,11.30
2022-11-13T02:35:44.122Z,11.30
2022-11-13T02:35:55.777Z,11.30
2022-11-13T02:36:08.159Z,11.30
2022-11-13T02:36:20.525Z,11.30
2022-11-13T02:36:32.192Z,11.30
2022-11-13T02:36:51.977Z,11.30
2022-11-13T02:37:03.652Z,11.30
2022-11-13T02:37:15.316Z,11.30
2022-11-13T02:37:27.009Z,11.30
2022-11-13T02:37:38.702Z,11.30
2022-11-13T02:37:50.561Z,11.30
2022-11-13T02:38:04.078Z,11.30
2022-11-13T02:38:15.801Z,11.30
2022-11-13T02:38:27.833Z,11.30
2022-11-13T02:38:39.912Z,11.30
2022-11-13T02:38:52.068Z,11.30
2022-11-13T02:39:06.708Z,11.30
2022-11-13T02:39:18.614Z,11.30
2022-11-13T02:39:30.398Z,11.30
2022-11-13T02:39:42.064Z,11.30
2022-11-13T02:39:53.730Z,11.30
2022-11-13T02:40:05.840Z,11.30
2022-11-13T02:40:18.123Z,11.30
2022-11-13T02:40:30.222Z,11.30
2022-11-13T02:40:41.921Z,11.30
2022-11-13T02:40:53.592Z,11.30
2022-11-13T02:41:05.350Z,11.30
2022-11-13T02:41:17.030Z,11.30
2022-11-13T02:41:28.708Z,11.30
2022-11-13T02:41:40.573Z,11.30
2022-11-13T02:41:52.380Z,11.30
2022-11-13T02:42:04.279Z,11.30
2022-11-13T02:42:16.098Z,11.30
2022-11-13T02:42:27.954Z,11.30
2022-11-13T02:42:39.655Z,11.30
2022-11-13T02:42:51.534Z,11.30
2022-11-13T02:43:03.372Z,11.30
2022-11-13T02:43:15.023Z,11.30
2022-11-13T02:43:26.678Z,11.30
2022-11-13T02:43:38.350Z,11.30
2022-11-13T02:43:50.020Z,11.30
2022-11-13T02:44:01.800Z,11.30
2022-11-13T02:44:13.642Z,11.30
2022-11-13T02:44:25.303Z,11.30
2022-11-13T02:44:37.092Z,11.30
2022-11-13T02:44:48.770Z,11.30
2022-11-13T02:45:01.338Z,11.30
2022-11-13T02:45:13.131Z,11.20
2022-11-13T02:45:24.844Z,11.30
2022-11-13T02:45:38.727Z,11.30
2022-11-13T02:45:50.534Z,11.30
2022-11-13T02:46:02.219Z,11.20
2022-11-13T02:46:13.939Z,11.20
2022-11-13T02:46:25.584Z,11.20
2022-11-13T02:46:37.669Z,11.20
2022-11-13T02:46:49.465Z,11.20
2022-11-13T02:47:01.113Z,11.20
2022-11-13T02:47:12.795Z,11.20
2022-11-13T02:47:24.627Z,11.20